Time;durP1;ratioP1;P1;durP2;ratioP2;P2;SDS_P1;SDS_P2;PMS_P1;PMS_P2;Temp;Humidity;BMP_temperature;BMP_pressure;BME280_temperature;BME280_humidity;BME280_pressure;Samples;Min_cycle;Max_cycle;Signal;HPM_P1;HPM_P2
2021/12/13 00:00:57;;;;;;;37.80;25.27;;;9.90;99.90;;;;;;5038330;28;20462;-83
2021/12/13 00:03:30;;;;;;;33.40;24.80;;;9.90;99.90;;;;;;5035688;28;20501;-83
2021/12/13 00:06:01;;;;;;;30.67;21.30;;;9.90;99.90;;;;;;5043318;28;20636;-82
2021/12/13 00:08:31;;;;;;;31.83;23.17;;;10.00;99.90;;;;;;5039993;28;20577;-83
2021/12/13 00:11:01;;;;;;;38.93;24.77;;;10.00;99.90;;;;;;5041506;28;20458;-82
2021/12/13 00:13:37;;;;;;;30.63;22.27;;;9.90;99.90;;;;;;5036562;28;20857;-83
2021/12/13 00:16:07;;;;;;;37.43;24.87;;;9.90;99.90;;;;;;5050611;28;20444;-83
2021/12/13 00:18:36;;;;;;;29.50;20.77;;;9.90;99.90;;;;;;5047048;28;20481;-83
2021/12/13 00:21:08;;;;;;;34.63;22.07;;;10.00;99.90;;;;;;5037608;28;20839;-82
2021/12/13 00:23:43;;;;;;;35.03;25.20;;;10.00;99.90;;;;;;5057371;28;20478;-82
2021/12/13 00:26:11;;;;;;;37.03;23.50;;;10.00;99.90;;;;;;5050163;28;20455;-82
2021/12/13 00:28:41;;;;;;;41.17;26.30;;;9.90;99.90;;;;;;5048384;28;20481;-83
2021/12/13 00:31:23;;;;;;;36.13;24.60;;;9.90;99.90;;;;;;5050514;28;20557;-82
2021/12/13 00:34:03;;;;;;;33.73;21.83;;;9.90;99.90;;;;;;5054292;28;20469;-83
2021/12/13 00:36:34;;;;;;;41.47;24.10;;;9.90;99.90;;;;;;5036222;28;20929;-82
2021/12/13 00:39:10;;;;;;;42.83;29.00;;;9.90;99.90;;;;;;5036766;28;20452;-82
2021/12/13 00:41:41;;;;;;;34.80;23.50;;;9.90;99.90;;;;;;5055596;28;20452;-82
2021/12/13 00:44:15;;;;;;;27.43;20.70;;;9.90;99.90;;;;;;5044549;28;20451;-82
2021/12/13 00:46:45;;;;;;;24.27;18.83;;;10.00;99.90;;;;;;5028351;28;20471;-82
2021/12/13 00:49:14;;;;;;;36.20;24.77;;;9.90;99.90;;;;;;5038978;28;20488;-82
2021/12/13 00:51:44;;;;;;;30.77;19.90;;;9.90;99.90;;;;;;5045682;28;20458;-82
2021/12/13 00:54:15;;;;;;;28.70;20.40;;;9.90;99.90;;;;;;5053752;28;20461;-82
2021/12/13 00:56:57;;;;;;;28.47;20.50;;;9.80;99.90;;;;;;5032901;28;20440;-82
2021/12/13 00:59:29;;;;;;;25.23;18.03;;;9.90;99.90;;;;;;5030550;28;20438;-82
2021/12/13 01:02:01;;;;;;;24.67;19.03;;;10.00;99.90;;;;;;5031649;28;20495;-82
2021/12/13 01:04:53;;;;;;;27.10;20.70;;;9.90;99.90;;;;;;5029722;28;20527;-82
2021/12/13 01:07:50;;;;;;;31.53;19.40;;;10.00;99.90;;;;;;5032816;28;20439;-82
2021/12/13 01:11:00;;;;;;;32.23;22.47;;;9.90;99.90;;;;;;4992226;28;20454;-82
2021/12/13 01:13:32;;;;;;;30.37;21.23;;;9.90;99.90;;;;;;5029502;28;20476;-83
2021/12/13 01:16:12;;;;;;;23.90;18.70;;;9.90;99.90;;;;;;5033225;28;20534;-82
2021/12/13 01:18:58;;;;;;;26.77;18.97;;;10.00;99.90;;;;;;5035921;28;20447;-82
2021/12/13 01:21:39;;;;;;;24.77;18.63;;;10.00;99.90;;;;;;5038873;28;20550;-81
2021/12/13 01:24:15;;;;;;;32.07;20.90;;;10.00;99.90;;;;;;5033487;28;20829;-82
2021/12/13 01:26:45;;;;;;;30.13;21.57;;;9.90;99.90;;;;;;5058256;28;20488;-82
2021/12/13 01:29:17;;;;;;;28.33;20.37;;;9.80;99.90;;;;;;5047052;28;20488;-82
2021/12/13 01:31:49;;;;;;;27.60;19.33;;;9.90;99.90;;;;;;5048247;28;20457;-83
2021/12/13 01:34:18;;;;;;;31.80;21.60;;;9.80;99.90;;;;;;5054539;28;21326;-82
2021/12/13 01:36:55;;;;;;;31.53;21.70;;;9.80;99.90;;;;;;5039691;28;20461;-82
2021/12/13 01:39:26;;;;;;;30.40;20.80;;;9.80;99.90;;;;;;5047826;28;20458;-83
2021/12/13 01:41:55;;;;;;;29.93;21.37;;;9.80;99.90;;;;;;5042811;28;20460;-83
2021/12/13 01:44:24;;;;;;;31.63;23.57;;;9.80;99.90;;;;;;5053039;28;20537;-83
2021/12/13 01:46:58;;;;;;;29.80;21.43;;;9.80;99.90;;;;;;5051491;28;21213;-83
2021/12/13 01:49:29;;;;;;;31.70;21.83;;;9.80;99.90;;;;;;5040831;28;20482;-83
2021/12/13 01:51:58;;;;;;;27.83;21.50;;;9.80;99.90;;;;;;5058951;28;20576;-83
2021/12/13 01:54:26;;;;;;;29.40;21.70;;;9.80;99.90;;;;;;5055414;28;20450;-83
2021/12/13 01:56:59;;;;;;;27.93;20.17;;;9.90;99.90;;;;;;5040974;28;20449;-83
2021/12/13 01:59:41;;;;;;;32.00;22.47;;;9.90;99.90;;;;;;5023175;28;20573;-83
2021/12/13 02:02:19;;;;;;;35.50;24.00;;;9.80;99.90;;;;;;5021110;28;20906;-83
2021/12/13 02:04:54;;;;;;;24.57;19.50;;;9.70;99.90;;;;;;5021866;28;20546;-83
2021/12/13 02:07:26;;;;;;;29.93;23.00;;;9.80;99.90;;;;;;5020755;28;20520;-82
2021/12/13 02:09:53;;;;;;;28.27;20.97;;;9.70;99.90;;;;;;5034376;28;20488;-83
2021/12/13 02:12:21;;;;;;;33.10;21.47;;;9.70;99.90;;;;;;5040902;28;20476;-83
2021/12/13 02:16:56;;;;;;;29.67;21.20;;;9.70;99.90;;;;;;5023633;28;20534;-83
2021/12/13 02:17:43;;;;;;;28.37;21.00;;;9.80;99.90;;;;;;5021265;28;20451;-83
2021/12/13 02:20:13;;;;;;;35.97;23.80;;;9.80;99.90;;;;;;5042198;28;20438;-82
2021/12/13 02:22:43;;;;;;;31.67;21.07;;;9.80;99.90;;;;;;5052900;28;20457;-82
2021/12/13 02:25:18;;;;;;;28.77;21.13;;;9.70;99.90;;;;;;5032463;28;20439;-83
2021/12/13 02:27:56;;;;;;;29.80;21.40;;;9.80;99.90;;;;;;5023222;28;20453;-83
2021/12/13 02:30:30;;;;;;;31.03;21.30;;;9.80;99.90;;;;;;5022960;28;20457;-83
2021/12/13 02:32:58;;;;;;;28.57;19.13;;;9.70;99.90;;;;;;5027700;28;20483;-83
2021/12/13 02:35:29;;;;;;;29.10;18.37;;;9.80;99.90;;;;;;5022934;28;20455;-83
2021/12/13 02:38:00;;;;;;;27.60;17.50;;;9.80;99.90;;;;;;5028176;28;20509;-83
2021/12/13 02:40:27;;;;;;;24.17;17.40;;;9.80;99.90;;;;;;5041740;28;20433;-83
2021/12/13 02:42:54;;;;;;;20.27;15.87;;;9.80;99.90;;;;;;5034058;28;20477;-82
2021/12/13 02:45:26;;;;;;;22.20;16.43;;;9.90;99.90;;;;;;5021317;28;20458;-83
2021/12/13 02:47:58;;;;;;;20.90;15.00;;;9.80;99.90;;;;;;5025343;28;20458;-82
2021/12/13 02:50:37;;;;;;;22.00;15.43;;;9.80;99.90;;;;;;5028655;28;20483;-82
2021/12/13 02:53:07;;;;;;;20.77;14.33;;;9.80;99.90;;;;;;5030610;28;20486;-83
2021/12/13 02:55:34;;;;;;;18.10;13.00;;;9.80;99.90;;;;;;5020012;28;20450;-83
2021/12/13 02:58:05;;;;;;;17.40;14.17;;;9.80;99.90;;;;;;5027041;28;20533;-83
2021/12/13 03:00:36;;;;;;;15.80;13.00;;;9.80;99.90;;;;;;5039389;28;20446;-83
2021/12/13 03:03:08;;;;;;;19.60;13.97;;;9.80;99.90;;;;;;5032706;28;20482;-83
2021/12/13 03:05:37;;;;;;;19.40;14.03;;;9.80;99.90;;;;;;5036275;28;20458;-84
2021/12/13 03:08:10;;;;;;;20.93;13.20;;;9.70;99.90;;;;;;5021219;28;20461;-83
2021/12/13 03:10:48;;;;;;;14.27;11.73;;;9.70;99.90;;;;;;5021319;28;20526;-83
2021/12/13 03:13:15;;;;;;;18.93;14.20;;;9.80;99.90;;;;;;5039876;28;20480;-83
2021/12/13 03:15:47;;;;;;;17.60;11.60;;;9.70;99.90;;;;;;5041729;28;20468;-83
2021/12/13 03:18:19;;;;;;;17.03;13.43;;;9.70;99.90;;;;;;5039621;28;20438;-82
2021/12/13 03:21:23;;;;;;;20.50;14.67;;;9.70;99.90;;;;;;5033114;28;20459;-83
2021/12/13 03:24:09;;;;;;;15.03;11.43;;;9.70;99.90;;;;;;5020934;28;20465;-83
2021/12/13 03:26:58;;;;;;;14.60;11.80;;;9.80;99.90;;;;;;5032565;28;20453;-83
2021/12/13 03:29:35;;;;;;;16.03;12.93;;;9.80;99.90;;;;;;5039714;28;20496;-82
2021/12/13 03:32:02;;;;;;;19.97;13.57;;;9.80;99.90;;;;;;5023703;28;20471;-83
2021/12/13 03:34:31;;;;;;;17.30;12.97;;;9.80;99.90;;;;;;5021876;28;20456;-83
2021/12/13 03:37:02;;;;;;;17.67;14.17;;;9.80;99.90;;;;;;5040098;28;20450;-83
2021/12/13 03:39:38;;;;;;;18.30;14.07;;;9.70;99.90;;;;;;5028004;28;20926;-83
2021/12/13 03:42:09;;;;;;;17.30;13.73;;;9.70;99.90;;;;;;5020244;28;20469;-84
2021/12/13 03:44:46;;;;;;;18.50;14.00;;;9.70;99.90;;;;;;5021866;28;20448;-81
2021/12/13 03:47:17;;;;;;;22.83;15.90;;;9.70;99.90;;;;;;5039158;28;21067;-83
2021/12/13 03:49:46;;;;;;;18.83;14.10;;;9.60;99.90;;;;;;5038197;28;21124;-83
2021/12/13 03:52:18;;;;;;;19.57;13.80;;;9.60;99.90;;;;;;5038498;28;20482;-83
2021/12/13 03:54:47;;;;;;;16.60;12.70;;;9.70;99.90;;;;;;5030430;28;20450;-84
2021/12/13 03:57:17;;;;;;;17.63;14.00;;;9.70;99.90;;;;;;5021416;28;20529;-83
2021/12/13 03:59:46;;;;;;;16.03;12.40;;;9.70;99.90;;;;;;5038066;28;20450;-84
2021/12/13 04:02:18;;;;;;;17.23;12.70;;;9.70;99.90;;;;;;5039378;28;20864;-83
2021/12/13 04:04:49;;;;;;;15.67;12.43;;;9.70;99.90;;;;;;5039981;28;20524;-83
2021/12/13 04:07:19;;;;;;;16.67;12.27;;;9.70;99.90;;;;;;5043101;28;20436;-82
2021/12/13 04:09:53;;;;;;;18.80;12.27;;;9.70;99.90;;;;;;5035404;28;20486;-83
2021/12/13 04:12:26;;;;;;;12.03;9.70;;;9.70;99.90;;;;;;5042259;28;20483;-83
2021/12/13 04:15:00;;;;;;;13.20;9.57;;;9.70;99.90;;;;;;5031477;28;20458;-83
2021/12/13 04:17:41;;;;;;;14.63;8.63;;;9.70;99.90;;;;;;5022837;28;21031;-83
2021/12/13 04:20:14;;;;;;;16.47;8.57;;;9.70;99.90;;;;;;5035161;28;20464;-83
2021/12/13 04:22:48;;;;;;;10.83;7.83;;;9.70;99.90;;;;;;5042220;28;20462;-83
2021/12/13 04:25:19;;;;;;;9.67;6.20;;;9.70;99.90;;;;;;5041087;28;20456;-83
2021/12/13 04:27:54;;;;;;;10.20;8.00;;;9.70;99.90;;;;;;5022730;28;20462;-83
2021/12/13 04:30:26;;;;;;;6.90;5.70;;;9.70;99.90;;;;;;5039336;28;20476;-83
2021/12/13 04:32:56;;;;;;;11.17;8.00;;;9.70;99.90;;;;;;5042153;28;20477;-82
2021/12/13 04:35:26;;;;;;;7.13;6.37;;;9.70;99.90;;;;;;5041315;28;20508;-83
2021/12/13 04:37:57;;;;;;;10.23;7.37;;;9.70;99.90;;;;;;5041604;28;20443;-83
2021/12/13 04:40:27;;;;;;;9.13;6.10;;;9.60;99.90;;;;;;5040496;28;21011;-82
2021/12/13 04:42:56;;;;;;;9.07;5.93;;;9.50;99.90;;;;;;5037743;28;21010;-83
2021/12/13 04:45:25;;;;;;;12.63;6.73;;;9.60;99.90;;;;;;5040823;28;20536;-83
2021/12/13 04:47:58;;;;;;;6.63;5.00;;;9.60;99.90;;;;;;5037172;28;20452;-83
2021/12/13 04:50:29;;;;;;;13.77;6.80;;;9.60;99.90;;;;;;5020711;28;20552;-82
2021/12/13 04:52:57;;;;;;;8.23;6.37;;;9.60;99.90;;;;;;5022991;28;20483;-83
2021/12/13 04:55:30;;;;;;;11.40;7.60;;;9.60;99.90;;;;;;5039835;28;20445;-83
2021/12/13 04:58:02;;;;;;;10.23;6.60;;;9.60;99.90;;;;;;5037315;28;20450;-83
2021/12/13 05:00:33;;;;;;;11.60;7.67;;;9.60;99.90;;;;;;5044695;28;20848;-82
2021/12/13 05:03:02;;;;;;;8.80;7.47;;;9.50;99.90;;;;;;5053734;28;20553;-83
2021/12/13 05:05:32;;;;;;;9.77;7.60;;;9.50;99.90;;;;;;5046289;28;20457;-83
2021/12/13 05:08:00;;;;;;;10.47;6.87;;;9.50;99.90;;;;;;5040063;28;20457;-84
2021/12/13 05:10:30;;;;;;;11.70;8.43;;;9.60;99.90;;;;;;5021868;28;20551;-83
2021/12/13 05:13:09;;;;;;;8.80;6.60;;;9.50;99.90;;;;;;5022005;28;20873;-84
2021/12/13 05:15:39;;;;;;;9.03;6.90;;;9.60;99.90;;;;;;5021261;28;20544;-83
2021/12/13 05:18:09;;;;;;;10.40;7.47;;;9.60;99.90;;;;;;5021459;28;20463;-83
2021/12/13 05:20:39;;;;;;;10.40;7.13;;;9.60;99.90;;;;;;5023485;28;20456;-83
2021/12/13 05:23:10;;;;;;;10.07;7.00;;;9.70;99.90;;;;;;5020667;28;20482;-83
2021/12/13 05:25:41;;;;;;;8.87;6.80;;;9.70;99.90;;;;;;5038284;28;20460;-83
2021/12/13 05:28:11;;;;;;;10.70;7.60;;;9.70;99.90;;;;;;5020351;28;20451;-83
2021/12/13 05:30:45;;;;;;;9.30;7.33;;;9.70;99.90;;;;;;5039985;28;20488;-83
2021/12/13 05:33:15;;;;;;;10.77;7.40;;;9.70;99.90;;;;;;5030921;28;20464;-83
2021/12/13 05:35:46;;;;;;;10.67;8.67;;;9.70;99.90;;;;;;5019775;28;20439;-83
2021/12/13 05:38:27;;;;;;;9.73;6.30;;;9.70;99.90;;;;;;5035437;28;20550;-84
2021/12/13 05:40:58;;;;;;;9.97;7.33;;;9.60;99.90;;;;;;5032978;28;20457;-84
2021/12/13 05:43:29;;;;;;;11.50;7.30;;;9.70;99.90;;;;;;5034653;28;20480;-83
2021/12/13 05:46:00;;;;;;;12.40;8.03;;;9.70;99.90;;;;;;5030891;28;20446;-84
2021/12/13 05:48:43;;;;;;;11.50;7.73;;;9.60;99.90;;;;;;5035629;28;20484;-84
2021/12/13 05:51:24;;;;;;;12.07;7.97;;;9.60;99.90;;;;;;5036175;28;20449;-83
2021/12/13 05:53:57;;;;;;;12.47;8.47;;;9.60;99.90;;;;;;5045140;28;20476;-83
2021/12/13 05:56:29;;;;;;;10.30;7.40;;;9.70;99.90;;;;;;5026794;28;20446;-82
2021/12/13 05:59:09;;;;;;;8.87;7.13;;;9.70;99.90;;;;;;5056782;28;20532;-82
2021/12/13 06:01:43;;;;;;;12.17;7.33;;;9.60;99.90;;;;;;5057428;28;20462;-80
2021/12/13 06:04:17;;;;;;;5.67;3.17;;;9.60;99.90;;;;;;5043426;28;20455;-82
2021/12/13 06:06:48;;;;;;;4.90;3.70;;;9.80;99.90;;;;;;5040141;28;20455;-82
2021/12/13 06:09:44;;;;;;;9.50;5.13;;;10.50;99.90;;;;;;5039094;28;20491;-83
2021/12/13 06:12:16;;;;;;;8.03;5.20;;;10.80;99.90;;;;;;5027322;28;20459;-84
2021/12/13 06:14:43;;;;;;;6.03;4.83;;;10.80;99.90;;;;;;5028113;28;20896;-83
2021/12/13 06:17:17;;;;;;;7.70;4.90;;;10.90;99.90;;;;;;5029145;28;20843;-84
2021/12/13 06:20:01;;;;;;;7.30;5.50;;;10.70;99.90;;;;;;5024147;28;20454;-85
2021/12/13 06:22:32;;;;;;;7.87;5.83;;;10.50;99.90;;;;;;5023241;28;20560;-83
2021/12/13 06:25:05;;;;;;;9.20;6.13;;;10.40;99.90;;;;;;5018710;28;20462;-83
2021/12/13 06:27:41;;;;;;;9.20;5.80;;;10.40;99.90;;;;;;5042870;28;20532;-82
2021/12/13 06:30:11;;;;;;;8.90;6.10;;;10.20;99.90;;;;;;5034029;28;20480;-82
2021/12/13 06:32:43;;;;;;;7.93;5.50;;;10.20;99.90;;;;;;5034042;28;20486;-82
2021/12/13 06:35:31;;;;;;;8.30;6.07;;;10.10;99.90;;;;;;5020599;28;20528;-83
2021/12/13 06:38:00;;;;;;;8.93;5.40;;;10.00;99.90;;;;;;5035272;28;20456;-83
2021/12/13 06:40:29;;;;;;;9.03;6.30;;;10.00;99.90;;;;;;5035290;28;20856;-82
2021/12/13 06:43:00;;;;;;;7.17;5.70;;;9.90;99.90;;;;;;5030344;28;20469;-81
2021/12/13 06:45:30;;;;;;;8.67;5.93;;;9.80;99.90;;;;;;5036825;28;20470;-82
2021/12/13 06:47:59;;;;;;;10.23;6.30;;;9.80;99.90;;;;;;5032713;28;20468;-82
2021/12/13 06:50:31;;;;;;;8.03;5.63;;;9.80;99.90;;;;;;5034032;28;20494;-82
2021/12/13 06:53:13;;;;;;;11.40;6.40;;;9.80;99.90;;;;;;5034244;28;20488;-83
2021/12/13 06:55:40;;;;;;;8.27;5.50;;;9.80;99.90;;;;;;5033960;28;20878;-80
2021/12/13 06:58:19;;;;;;;9.77;7.07;;;9.80;99.90;;;;;;5032832;28;20461;-82
2021/12/13 07:00:49;;;;;;;8.30;6.07;;;9.80;99.90;;;;;;5035202;28;20923;-83
2021/12/13 07:03:19;;;;;;;9.00;6.50;;;9.80;99.90;;;;;;5032335;28;20475;-81
2021/12/13 07:05:50;;;;;;;8.20;5.67;;;9.80;99.90;;;;;;5033646;28;20445;-80
2021/12/13 07:08:21;;;;;;;8.83;7.60;;;9.80;99.90;;;;;;5034522;28;20464;-82
2021/12/13 07:10:59;;;;;;;10.33;6.53;;;9.70;99.90;;;;;;5034948;28;20503;-82
2021/12/13 07:13:32;;;;;;;10.37;6.23;;;9.70;99.90;;;;;;5035199;28;20472;-83
2021/12/13 07:16:02;;;;;;;9.37;6.60;;;9.70;99.90;;;;;;5022313;28;20464;-82
2021/12/13 07:18:39;;;;;;;7.10;5.50;;;9.70;99.90;;;;;;5033765;28;20522;-85
2021/12/13 07:21:09;;;;;;;12.57;6.23;;;9.70;99.90;;;;;;5034749;28;20547;-82
2021/12/13 07:23:53;;;;;;;11.33;7.07;;;9.80;99.90;;;;;;5035885;28;20476;-79
2021/12/13 07:26:33;;;;;;;9.47;5.83;;;9.70;99.90;;;;;;5034701;28;20455;-81
2021/12/13 07:29:04;;;;;;;12.17;6.83;;;9.80;99.90;;;;;;5034732;28;20489;-82
2021/12/13 07:31:31;;;;;;;9.17;5.97;;;9.80;99.90;;;;;;5032741;28;20469;-80
2021/12/13 07:34:12;;;;;;;9.60;6.10;;;9.80;99.90;;;;;;5034585;28;20476;-79
2021/12/13 07:36:40;;;;;;;11.43;7.53;;;9.80;99.90;;;;;;5033986;28;20464;-80
2021/12/13 07:39:14;;;;;;;7.80;5.43;;;9.80;99.90;;;;;;5036539;28;20458;-79
2021/12/13 07:41:45;;;;;;;7.73;5.97;;;9.80;99.90;;;;;;5036744;28;20542;-80
2021/12/13 07:44:34;;;;;;;7.40;5.87;;;9.70;99.90;;;;;;5037675;28;20457;-79
2021/12/13 07:47:04;;;;;;;11.63;7.40;;;9.80;99.90;;;;;;5042074;28;20527;-80
2021/12/13 07:49:32;;;;;;;10.13;6.33;;;9.70;99.90;;;;;;5046952;28;20529;-83
2021/12/13 07:52:02;;;;;;;10.73;5.93;;;9.70;99.90;;;;;;5045233;28;20481;-82
2021/12/13 07:54:38;;;;;;;7.87;5.97;;;9.70;99.90;;;;;;5035102;28;20864;-80
2021/12/13 07:57:16;;;;;;;7.17;5.80;;;9.70;99.90;;;;;;5025873;28;20545;-81
2021/12/13 07:59:44;;;;;;;9.10;5.37;;;9.70;99.90;;;;;;5020148;28;20462;-81
2021/12/13 08:02:21;;;;;;;10.23;6.60;;;9.80;99.90;;;;;;5037272;28;20477;-79
2021/12/13 08:04:51;;;;;;;12.63;6.83;;;9.70;99.90;;;;;;5038801;28;20506;-82
2021/12/13 08:07:21;;;;;;;8.53;6.20;;;9.70;99.90;;;;;;5038798;28;20459;-83
2021/12/13 08:09:52;;;;;;;8.13;6.03;;;9.80;99.90;;;;;;5038768;28;20488;-81
2021/12/13 08:12:22;;;;;;;8.67;5.80;;;9.80;99.90;;;;;;5037932;28;20476;-81
2021/12/13 08:14:53;;;;;;;9.27;7.10;;;9.80;99.90;;;;;;5038403;28;21001;-82
2021/12/13 08:17:23;;;;;;;11.73;6.20;;;9.80;99.90;;;;;;5038626;28;20504;-81
2021/12/13 08:19:55;;;;;;;10.03;5.37;;;9.80;99.90;;;;;;5038763;28;20971;-83
2021/12/13 08:22:28;;;;;;;8.10;5.40;;;9.90;99.90;;;;;;5037481;28;20469;-82
2021/12/13 08:24:57;;;;;;;8.90;5.10;;;9.80;99.90;;;;;;5025385;28;20538;-83
2021/12/13 08:27:27;;;;;;;10.80;5.47;;;9.80;99.90;;;;;;5038186;28;20455;-81
2021/12/13 08:30:08;;;;;;;7.23;5.47;;;9.80;99.90;;;;;;5018395;28;20489;-82
2021/12/13 08:32:35;;;;;;;6.87;5.23;;;9.80;99.90;;;;;;5018479;28;20507;-84
2021/12/13 08:35:06;;;;;;;8.30;5.80;;;9.80;99.90;;;;;;5018097;28;20443;-83
2021/12/13 08:37:35;;;;;;;8.40;4.50;;;9.90;99.90;;;;;;5017381;28;20482;-82
2021/12/13 08:40:13;;;;;;;5.63;4.77;;;10.00;99.90;;;;;;5037624;28;20829;-82
2021/12/13 08:42:43;;;;;;;7.57;4.87;;;9.90;99.90;;;;;;5037744;28;20476;-82
2021/12/13 08:45:19;;;;;;;5.53;4.73;;;10.00;99.90;;;;;;5038626;28;20461;-84
2021/12/13 08:47:49;;;;;;;8.63;4.93;;;10.00;99.90;;;;;;5033287;28;20811;-83
2021/12/13 08:50:20;;;;;;;11.33;5.93;;;10.00;99.90;;;;;;5037970;28;20891;-84
2021/12/13 08:52:53;;;;;;;13.07;5.53;;;9.90;99.90;;;;;;5037061;28;20511;-84
2021/12/13 08:55:25;;;;;;;6.87;4.87;;;10.00;99.90;;;;;;5036905;28;20459;-83
2021/12/13 08:57:57;;;;;;;7.27;5.13;;;10.00;99.90;;;;;;5029917;28;20521;-84
2021/12/13 09:00:43;;;;;;;8.07;4.67;;;10.00;99.90;;;;;;5035851;28;20432;-81
2021/12/13 09:03:25;;;;;;;8.73;5.33;;;10.10;99.90;;;;;;5030063;28;21029;-82
2021/12/13 09:06:03;;;;;;;7.17;4.53;;;10.10;99.90;;;;;;5034550;28;20458;-82
2021/12/13 09:08:35;;;;;;;8.53;4.90;;;10.10;99.90;;;;;;5036313;28;20448;-81
2021/12/13 09:11:14;;;;;;;7.80;4.13;;;10.10;99.90;;;;;;5037001;28;20470;-82
2021/12/13 09:13:44;;;;;;;7.27;4.80;;;10.10;99.90;;;;;;5044998;28;20495;-84
2021/12/13 09:16:19;;;;;;;7.23;4.70;;;10.10;99.90;;;;;;5049795;28;20485;-83
2021/12/13 09:19:06;;;;;;;7.30;5.00;;;10.20;99.90;;;;;;5037520;28;20455;-85
2021/12/13 09:24:29;;;;;;;5.37;3.87;;;10.20;99.90;;;;;;5086105;23;20507;-83
2021/12/13 09:27:11;;;;;;;5.70;4.27;;;10.30;99.90;;;;;;5049488;28;20470;-83
2021/12/13 09:30:21;;;;;;;7.10;4.33;;;10.30;99.90;;;;;;5057814;28;20472;-83
2021/12/13 09:32:52;;;;;;;6.33;4.50;;;10.30;99.90;;;;;;5038071;28;20482;-83
2021/12/13 09:35:27;;;;;;;8.10;4.30;;;10.20;99.90;;;;;;5043077;28;20886;-82
2021/12/13 09:37:57;;;;;;;7.70;4.40;;;10.30;99.90;;;;;;5033239;28;20473;-81
2021/12/13 09:40:36;;;;;;;5.83;3.37;;;10.30;99.90;;;;;;5041648;28;20480;-83
2021/12/13 09:43:14;;;;;;;8.40;6.37;;;10.30;99.90;;;;;;5055822;28;20503;-81
2021/12/13 09:45:55;;;;;;;5.50;3.70;;;10.30;99.90;;;;;;5025595;28;20462;-83
2021/12/13 09:48:28;;;;;;;5.50;3.47;;;10.40;99.90;;;;;;5045129;28;20457;-85
2021/12/13 09:50:59;;;;;;;8.10;3.97;;;10.30;99.90;;;;;;5040611;28;20478;-82
2021/12/13 09:53:31;;;;;;;6.53;3.73;;;10.40;99.90;;;;;;5037456;28;20886;-83
2021/12/13 09:56:02;;;;;;;7.83;3.73;;;10.30;99.90;;;;;;5036886;28;20461;-82
2021/12/13 09:58:38;;;;;;;8.57;3.77;;;10.30;99.90;;;;;;5041217;28;21078;-84
2021/12/13 10:01:10;;;;;;;5.77;4.20;;;10.40;99.90;;;;;;5036435;28;20452;-83
2021/12/13 10:03:49;;;;;;;8.03;4.20;;;10.40;99.90;;;;;;5032999;28;21064;-84
2021/12/13 10:06:19;;;;;;;6.90;4.50;;;10.50;99.90;;;;;;5033337;28;20470;-82
2021/12/13 10:08:49;;;;;;;5.63;4.00;;;10.40;99.90;;;;;;5036974;28;20549;-82
2021/12/13 10:11:20;;;;;;;10.10;4.60;;;10.50;99.90;;;;;;5026927;28;20856;-84
2021/12/13 10:13:48;;;;;;;5.50;3.60;;;10.40;99.90;;;;;;5017149;28;20564;-83
2021/12/13 10:16:19;;;;;;;9.20;4.23;;;10.50;99.90;;;;;;5021590;28;20449;-83
2021/12/13 10:18:51;;;;;;;6.57;3.80;;;10.50;99.90;;;;;;5026143;28;20788;-83
2021/12/13 10:21:21;;;;;;;6.87;4.40;;;10.60;99.90;;;;;;5033424;28;20534;-84
2021/12/13 10:23:54;;;;;;;6.53;4.27;;;10.60;99.90;;;;;;5036805;28;20481;-83
2021/12/13 10:26:25;;;;;;;6.70;1.23;;;10.40;99.90;;;;;;5029131;28;20497;-84
2021/12/13 10:28:56;;;;;;;5.57;4.03;;;10.70;99.90;;;;;;5045720;28;20507;-83
2021/12/13 10:31:28;;;;;;;5.13;3.57;;;11.00;99.90;;;;;;5044866;28;20490;-84
2021/12/13 10:33:58;;;;;;;3.90;2.97;;;11.30;99.90;;;;;;5016540;28;20470;-84
2021/12/13 10:36:28;;;;;;;4.63;2.97;;;11.50;99.90;;;;;;5047221;28;20480;-80
2021/12/13 10:38:57;;;;;;;4.90;3.57;;;11.30;99.90;;;;;;5061842;28;20448;-84
2021/12/13 10:41:27;;;;;;;8.93;4.20;;;11.00;99.90;;;;;;5055658;28;20517;-83
2021/12/13 10:43:58;;;;;;;5.37;3.53;;;10.80;99.90;;;;;;5047574;28;20565;-84
2021/12/13 10:46:28;;;;;;;10.20;4.20;;;10.80;99.90;;;;;;5049656;28;20461;-84
2021/12/13 10:48:59;;;;;;;5.53;3.90;;;10.80;99.90;;;;;;5040870;28;20511;-85
2021/12/13 10:51:29;;;;;;;5.20;3.80;;;10.80;99.90;;;;;;5039355;28;20489;-82
2021/12/13 10:54:00;;;;;;;7.30;3.90;;;10.80;99.90;;;;;;5031332;28;20531;-83
2021/12/13 10:56:32;;;;;;;5.47;4.10;;;10.70;99.90;;;;;;5027732;28;20543;-82
2021/12/13 10:59:03;;;;;;;6.20;4.47;;;10.70;99.90;;;;;;5025877;28;20447;-81
2021/12/13 11:01:34;;;;;;;7.93;4.17;;;10.60;99.90;;;;;;5026247;28;20450;-80
2021/12/13 11:04:07;;;;;;;6.90;4.40;;;10.60;99.90;;;;;;5026637;28;20474;-82
2021/12/13 11:06:35;;;;;;;5.30;3.37;;;10.60;99.90;;;;;;5023493;28;20475;-85
2021/12/13 11:09:03;;;;;;;4.50;3.00;;;10.70;99.90;;;;;;5030578;28;20434;-85
2021/12/13 11:11:35;;;;;;;5.40;3.47;;;10.70;99.90;;;;;;5034320;28;20482;-85
2021/12/13 11:14:08;;;;;;;6.73;4.13;;;10.70;99.90;;;;;;5035301;28;20974;-84
2021/12/13 11:16:40;;;;;;;4.87;3.47;;;10.70;99.90;;;;;;5043112;28;20534;-83
2021/12/13 11:19:12;;;;;;;5.40;3.67;;;10.70;99.90;;;;;;5039402;28;20532;-84
2021/12/13 11:21:40;;;;;;;4.37;2.67;;;10.80;99.90;;;;;;5047377;28;20449;-84
2021/12/13 11:24:11;;;;;;;6.60;3.40;;;10.80;99.90;;;;;;5035393;28;20478;-84
2021/12/13 11:26:42;;;;;;;5.47;3.30;;;10.70;99.90;;;;;;5036363;28;20859;-85
2021/12/13 11:29:11;;;;;;;5.33;2.80;;;10.70;99.90;;;;;;5030450;28;20432;-84
2021/12/13 11:32:18;;;;;;;6.70;4.13;;;10.80;99.90;;;;;;5036391;28;21055;-84
2021/12/13 11:35:05;;;;;;;5.90;3.33;;;10.80;99.90;;;;;;5018365;28;20468;-84
2021/12/13 11:38:00;;;;;;;7.47;3.73;;;10.80;99.90;;;;;;5063482;28;20468;-84
2021/12/13 11:41:07;;;;;;;6.17;3.30;;;10.90;99.90;;;;;;5044306;28;20908;-85
2021/12/13 11:43:53;;;;;;;7.70;3.37;;;10.80;99.90;;;;;;5053751;28;20552;-84
2021/12/13 11:47:00;;;;;;;6.87;2.87;;;10.90;99.90;;;;;;5028356;28;20872;-85
2021/12/13 11:50:01;;;;;;;4.60;3.60;;;10.80;99.90;;;;;;5054238;28;20457;-86
2021/12/13 11:52:52;;;;;;;6.73;3.37;;;10.80;99.90;;;;;;5021245;28;20500;-84
2021/12/13 11:55:44;;;;;;;5.40;3.60;;;10.80;99.90;;;;;;5050467;28;20444;-83
2021/12/13 11:58:39;;;;;;;3.20;2.67;;;10.60;99.90;;;;;;5045357;28;20868;-84
2021/12/13 12:01:46;;;;;;;8.60;3.57;;;10.60;99.90;;;;;;5047314;28;20444;-86
2021/12/13 12:05:07;;;;;;;6.20;3.33;;;10.60;99.90;;;;;;5042170;28;20463;-82
2021/12/13 12:08:23;;;;;;;10.00;3.17;;;10.70;99.90;;;;;;5046242;28;20464;-82
2021/12/13 12:11:33;;;;;;;4.77;3.33;;;10.70;99.90;;;;;;5039828;28;20481;-84
2021/12/13 12:14:04;;;;;;;4.10;2.90;;;10.70;99.90;;;;;;5022184;28;20479;-83
2021/12/13 12:16:35;;;;;;;8.20;3.40;;;10.80;99.90;;;;;;5042563;28;20959;-83
2021/12/13 12:19:03;;;;;;;4.80;3.00;;;10.80;99.90;;;;;;5046420;28;20457;-84
2021/12/13 12:21:41;;;;;;;5.83;3.23;;;10.80;99.90;;;;;;5040341;28;20477;-84
2021/12/13 12:24:12;;;;;;;5.50;3.23;;;10.80;99.90;;;;;;5042684;28;20460;-84
2021/12/13 12:26:41;;;;;;;6.33;3.07;;;10.80;99.90;;;;;;5047769;28;20461;-83
2021/12/13 12:29:18;;;;;;;5.20;2.93;;;10.80;99.90;;;;;;5050543;28;20545;-83
2021/12/13 12:31:56;;;;;;;6.33;3.23;;;10.80;99.90;;;;;;5040044;28;20488;-84
2021/12/13 12:34:23;;;;;;;4.30;3.10;;;10.90;99.90;;;;;;5038967;28;20460;-83
2021/12/13 12:37:18;;;;;;;5.20;3.33;;;10.90;99.90;;;;;;5034739;28;20463;-83
2021/12/13 12:40:17;;;;;;;5.87;3.13;;;10.90;99.90;;;;;;5042537;28;20469;-86
2021/12/13 12:42:47;;;;;;;6.77;4.07;;;11.00;99.90;;;;;;5037252;28;20478;-80
2021/12/13 12:45:23;;;;;;;4.10;2.60;;;11.00;99.90;;;;;;5037702;28;21020;-82
2021/12/13 12:48:12;;;;;;;4.00;2.70;;;11.00;99.90;;;;;;5036999;28;20806;-83
2021/12/13 12:50:46;;;;;;;5.00;2.83;;;11.20;99.90;;;;;;5047802;28;20448;-82
2021/12/13 12:53:15;;;;;;;3.57;3.00;;;11.30;99.90;;;;;;5036318;28;20494;-82
2021/12/13 12:55:47;;;;;;;6.93;3.20;;;11.30;99.90;;;;;;5035630;28;20457;-81
2021/12/13 12:58:18;;;;;;;3.93;3.03;;;11.10;99.90;;;;;;5029132;28;20462;-82
2021/12/13 13:00:47;;;;;;;4.40;3.10;;;11.20;99.90;;;;;;5015742;28;20459;-82
2021/12/13 13:03:16;;;;;;;7.13;3.00;;;11.30;99.90;;;;;;5031392;28;20473;-82
2021/12/13 13:05:44;;;;;;;5.07;3.37;;;11.30;99.90;;;;;;5032083;28;20451;-82
2021/12/13 13:08:12;;;;;;;5.33;3.13;;;11.30;99.90;;;;;;5015334;28;20453;-82
2021/12/13 13:10:48;;;;;;;6.20;3.10;;;11.40;99.90;;;;;;5022076;28;20451;-82
2021/12/13 13:13:18;;;;;;;4.40;2.60;;;11.60;99.90;;;;;;5035759;28;20493;-82
2021/12/13 13:15:48;;;;;;;4.17;3.07;;;11.60;99.90;;;;;;5036314;28;20519;-82
2021/12/13 13:18:19;;;;;;;5.63;2.70;;;11.50;99.90;;;;;;5035403;28;20551;-82
2021/12/13 13:20:52;;;;;;;4.17;2.83;;;11.60;99.90;;;;;;5034069;28;20559;-82
2021/12/13 13:23:20;;;;;;;4.63;2.37;;;11.50;99.90;;;;;;5035340;28;20480;-83
2021/12/13 13:25:52;;;;;;;4.30;2.87;;;11.50;99.90;;;;;;5037130;28;20463;-83